Time;durP1;ratioP1;P1;durP2;ratioP2;P2;SDS_P1;SDS_P2;PMS_P1;PMS_P2;Temp;Humidity;BMP_temperature;BMP_pressure;BME280_temperature;BME280_humidity;BME280_pressure;Samples;Min_cycle;Max_cycle;Signal;HPM_P1;HPM_P2
2022/12/14 00:00:47;;;;;;;21.80;12.52;;;-2.50;99.90;;;;;;5067572;28;20044;-71
2022/12/14 00:03:13;;;;;;;22.15;11.90;;;-2.60;99.90;;;;;;5069750;28;20020;-71
2022/12/14 00:05:40;;;;;;;20.60;11.25;;;-2.50;99.90;;;;;;5062674;28;20508;-70
2022/12/14 00:08:05;;;;;;;21.52;12.13;;;-2.50;99.90;;;;;;5068797;28;20013;-70
2022/12/14 00:10:32;;;;;;;23.73;11.82;;;-2.40;99.90;;;;;;5069083;28;20433;-71
2022/12/14 00:12:59;;;;;;;24.08;12.38;;;-2.50;99.90;;;;;;5069753;28;20111;-70
2022/12/14 00:15:24;;;;;;;22.70;11.82;;;-2.40;99.90;;;;;;5066396;28;20028;-70
2022/12/14 00:17:50;;;;;;;20.60;12.00;;;-2.40;99.90;;;;;;5069334;28;20032;-70
2022/12/14 00:20:16;;;;;;;20.75;11.65;;;-2.40;99.90;;;;;;5070614;28;20086;-72
2022/12/14 00:22:41;;;;;;;22.38;11.20;;;-2.40;99.90;;;;;;5044668;28;20028;-70
2022/12/14 00:25:07;;;;;;;26.48;13.20;;;-2.40;99.90;;;;;;5053607;28;20025;-70
2022/12/14 00:27:33;;;;;;;24.15;12.32;;;-2.50;99.90;;;;;;5053091;28;20422;-70
2022/12/14 00:29:58;;;;;;;24.63;12.40;;;-2.40;99.90;;;;;;5029663;28;20575;-70
2022/12/14 00:32:24;;;;;;;23.00;11.18;;;-2.40;99.90;;;;;;5028727;28;20025;-70
2022/12/14 00:34:49;;;;;;;19.60;10.90;;;-2.30;99.90;;;;;;5031054;28;20083;-70
2022/12/14 00:37:15;;;;;;;23.42;11.60;;;-2.30;99.90;;;;;;5021706;28;20041;-72
2022/12/14 00:39:41;;;;;;;20.85;12.02;;;-2.30;99.90;;;;;;5029201;28;20053;-70
2022/12/14 00:42:07;;;;;;;25.33;12.80;;;-2.30;99.90;;;;;;5030400;28;20034;-70
2022/12/14 00:44:33;;;;;;;24.27;13.15;;;-2.40;99.90;;;;;;5030204;28;20026;-70
2022/12/14 00:46:59;;;;;;;24.13;11.73;;;-2.40;99.90;;;;;;5029970;28;20446;-71
2022/12/14 00:49:24;;;;;;;22.55;11.55;;;-2.40;99.90;;;;;;5036790;28;20029;-71
2022/12/14 00:51:50;;;;;;;22.33;11.93;;;-2.50;99.90;;;;;;5029040;28;20525;-70
2022/12/14 00:54:16;;;;;;;19.83;11.70;;;-2.50;99.90;;;;;;5022886;28;20032;-73
2022/12/14 00:56:41;;;;;;;26.55;12.55;;;-2.50;99.90;;;;;;5030289;28;20025;-70
2022/12/14 00:59:07;;;;;;;21.13;11.48;;;-2.40;99.90;;;;;;5023022;28;20459;-70
2022/12/14 01:01:32;;;;;;;24.67;12.52;;;-2.50;99.90;;;;;;5028311;28;20475;-71
2022/12/14 01:04:15;;;;;;;22.70;11.95;;;-2.40;99.90;;;;;;5027518;28;20037;-70
2022/12/14 01:06:43;;;;;;;25.55;13.70;;;-2.30;99.90;;;;;;5029890;28;20121;-70
2022/12/14 01:09:09;;;;;;;25.63;12.73;;;-2.30;99.90;;;;;;5030652;28;20078;-69
2022/12/14 01:11:35;;;;;;;23.08;12.07;;;-2.40;99.90;;;;;;5023150;28;20037;-70
2022/12/14 01:14:00;;;;;;;22.60;12.20;;;-2.40;99.90;;;;;;5028346;28;20033;-70
2022/12/14 01:16:26;;;;;;;28.13;12.77;;;-2.40;99.90;;;;;;5029531;28;20018;-70
2022/12/14 01:18:51;;;;;;;22.10;12.95;;;-2.40;99.90;;;;;;5032650;28;20048;-70
2022/12/14 01:21:20;;;;;;;25.13;13.00;;;-2.40;99.90;;;;;;5041354;28;20101;-72
2022/12/14 01:23:50;;;;;;;23.37;12.40;;;-2.30;99.90;;;;;;5034310;28;20060;-69
2022/12/14 01:26:17;;;;;;;21.47;11.87;;;-2.30;99.90;;;;;;5034557;28;20032;-71
2022/12/14 01:28:43;;;;;;;26.73;12.23;;;-2.30;99.90;;;;;;5048423;28;20303;-70
2022/12/14 01:31:15;;;;;;;22.40;12.27;;;-2.30;99.90;;;;;;5071604;28;20039;-70
2022/12/14 01:33:41;;;;;;;24.77;12.23;;;-2.30;99.90;;;;;;5073478;28;20028;-70
2022/12/14 01:36:10;;;;;;;22.33;12.98;;;-2.30;99.90;;;;;;5074574;28;20412;-71
2022/12/14 01:38:36;;;;;;;20.45;11.38;;;-2.20;99.90;;;;;;5054734;28;20674;-70
2022/12/14 01:41:02;;;;;;;23.00;12.32;;;-2.10;99.90;;;;;;5073598;28;20040;-70
2022/12/14 01:43:48;;;;;;;24.27;12.23;;;-2.10;99.90;;;;;;5072970;28;20024;-71
2022/12/14 01:46:23;;;;;;;21.33;12.18;;;-2.10;99.90;;;;;;5073606;28;20058;-70
2022/12/14 01:48:52;;;;;;;21.52;12.10;;;-2.10;99.90;;;;;;5057635;28;20024;-70
2022/12/14 01:51:18;;;;;;;21.05;11.65;;;-2.20;99.90;;;;;;5071996;28;20056;-72
2022/12/14 01:53:45;;;;;;;19.83;11.80;;;-2.20;99.90;;;;;;5073558;28;20449;-71
2022/12/14 01:56:11;;;;;;;20.70;11.98;;;-2.20;99.90;;;;;;5073811;28;20047;-71
2022/12/14 01:58:37;;;;;;;25.48;12.95;;;-2.20;99.90;;;;;;5083658;28;20223;-71
2022/12/14 02:01:03;;;;;;;23.00;12.75;;;-2.20;99.90;;;;;;5071920;28;20520;-73
2022/12/14 02:03:31;;;;;;;23.42;12.80;;;-2.20;99.90;;;;;;5066139;28;20031;-71
2022/12/14 02:06:11;;;;;;;24.77;13.45;;;-2.20;99.90;;;;;;5073671;28;20028;-71
2022/12/14 02:08:40;;;;;;;23.92;12.48;;;-2.20;99.90;;;;;;5072511;28;20085;-69
2022/12/14 02:11:06;;;;;;;21.80;11.80;;;-2.20;99.90;;;;;;5072565;28;20040;-69
2022/12/14 02:13:35;;;;;;;24.98;11.85;;;-2.10;99.90;;;;;;5072044;28;20445;-70
2022/12/14 02:16:01;;;;;;;22.40;12.00;;;-2.00;99.90;;;;;;5055826;28;20385;-71
2022/12/14 02:18:29;;;;;;;21.52;12.07;;;-2.00;99.90;;;;;;5065780;28;20036;-72
2022/12/14 02:21:06;;;;;;;25.55;12.13;;;-2.00;99.90;;;;;;5071888;28;20037;-70
2022/12/14 02:23:51;;;;;;;21.58;11.68;;;-2.10;99.90;;;;;;5072766;28;20050;-71
2022/12/14 02:26:24;;;;;;;23.75;12.32;;;-2.10;99.90;;;;;;5055423;28;20025;-73
2022/12/14 02:29:20;;;;;;;24.25;12.50;;;-2.10;99.90;;;;;;5072675;28;20052;-71
2022/12/14 02:32:05;;;;;;;24.80;13.07;;;-2.20;99.90;;;;;;5072363;28;20523;-71
2022/12/14 02:35:04;;;;;;;23.13;13.27;;;-2.20;99.90;;;;;;5072749;28;20056;-71
2022/12/14 02:37:52;;;;;;;24.40;12.77;;;-2.20;99.90;;;;;;5065072;28;20083;-71
2022/12/14 02:40:41;;;;;;;27.67;14.35;;;-2.20;99.90;;;;;;5071657;28;20032;-73
2022/12/14 02:43:37;;;;;;;21.00;12.38;;;-2.10;99.90;;;;;;5063535;28;20058;-70
2022/12/14 02:46:10;;;;;;;23.75;13.38;;;-2.20;99.90;;;;;;5073088;28;20025;-72
2022/12/14 02:48:42;;;;;;;26.90;13.43;;;-2.20;99.90;;;;;;5071630;28;20040;-71
2022/12/14 02:51:24;;;;;;;23.13;13.13;;;-2.20;99.90;;;;;;5071866;28;20075;-72
2022/12/14 02:54:01;;;;;;;24.20;13.18;;;-2.20;99.90;;;;;;5064537;28;21069;-71
2022/12/14 02:56:38;;;;;;;25.90;14.57;;;-2.20;99.90;;;;;;5053845;28;20021;-71
2022/12/14 02:59:07;;;;;;;30.23;14.00;;;-2.10;99.90;;;;;;5061972;28;20094;-71
2022/12/14 03:01:34;;;;;;;25.52;12.98;;;-2.10;99.90;;;;;;5070848;28;20094;-71
2022/12/14 03:04:00;;;;;;;25.60;14.52;;;-2.10;99.90;;;;;;5067967;28;20412;-73
2022/12/14 03:06:26;;;;;;;25.15;13.55;;;-2.10;99.90;;;;;;5071081;28;20036;-71
2022/12/14 03:09:01;;;;;;;26.27;14.70;;;-2.20;99.90;;;;;;5073185;28;20025;-70
2022/12/14 03:11:40;;;;;;;21.77;13.23;;;-2.10;99.90;;;;;;5062535;28;20045;-71
2022/12/14 03:14:16;;;;;;;26.00;13.52;;;-2.20;99.90;;;;;;5071609;28;20485;-70
2022/12/14 03:16:49;;;;;;;23.63;13.80;;;-2.20;99.90;;;;;;5071774;28;20025;-70
2022/12/14 03:19:27;;;;;;;26.80;14.93;;;-2.20;99.90;;;;;;5072507;28;20474;-72
2022/12/14 03:21:56;;;;;;;25.17;13.48;;;-2.20;99.90;;;;;;5070594;28;20074;-70
2022/12/14 03:24:29;;;;;;;24.10;14.48;;;-2.10;99.90;;;;;;5071554;28;20059;-70
2022/12/14 03:27:24;;;;;;;26.65;14.63;;;-2.20;99.90;;;;;;5071676;28;20155;-70
2022/12/14 03:29:58;;;;;;;26.67;15.60;;;-2.10;99.90;;;;;;5065909;28;20106;-70
2022/12/14 03:32:26;;;;;;;26.42;14.90;;;-2.20;99.90;;;;;;5070631;28;20036;-70
2022/12/14 03:34:58;;;;;;;27.77;15.43;;;-2.20;99.90;;;;;;5071646;28;20032;-70
2022/12/14 03:37:33;;;;;;;25.55;14.88;;;-2.10;99.90;;;;;;5070806;28;20044;-71
2022/12/14 03:39:58;;;;;;;25.95;14.45;;;-2.10;99.90;;;;;;5071773;28;20032;-70
2022/12/14 03:42:57;;;;;;;29.00;17.30;;;-2.10;99.90;;;;;;5070083;28;20147;-70
2022/12/14 03:45:35;;;;;;;29.45;15.45;;;-2.10;99.90;;;;;;5063362;28;20055;-71
2022/12/14 03:48:15;;;;;;;27.75;15.93;;;-2.20;99.90;;;;;;5071461;28;20079;-71
2022/12/14 03:50:43;;;;;;;29.15;15.50;;;-2.20;99.90;;;;;;5069131;28;20036;-71
2022/12/14 03:53:31;;;;;;;29.10;15.63;;;-2.20;99.90;;;;;;5071484;28;20035;-71
2022/12/14 03:56:08;;;;;;;27.27;15.18;;;-2.20;99.90;;;;;;5053102;28;20173;-69
2022/12/14 03:58:45;;;;;;;30.10;16.52;;;-2.20;99.90;;;;;;5080806;28;20025;-70
2022/12/14 04:01:33;;;;;;;26.88;14.88;;;-2.20;99.90;;;;;;5064013;28;21118;-70
2022/12/14 04:04:18;;;;;;;28.58;16.08;;;-2.10;99.90;;;;;;5068088;28;20526;-71
2022/12/14 04:07:13;;;;;;;30.98;16.23;;;-2.20;99.90;;;;;;5058010;28;20033;-70
2022/12/14 04:09:53;;;;;;;30.95;15.45;;;-2.10;99.90;;;;;;5069952;28;20118;-70
2022/12/14 04:20:55;;;;;;;30.10;15.48;;;-2.20;99.90;;;;;;5069137;28;20166;-71
2022/12/14 04:26:25;;;;;;;31.27;15.55;;;-2.20;99.90;;;;;;5056975;28;20066;-73
2022/12/14 04:31:44;;;;;;;30.17;16.70;;;-2.20;99.90;;;;;;5070206;28;20748;-70
2022/12/14 04:34:13;;;;;;;29.13;16.77;;;-2.10;99.90;;;;;;5071250;28;20098;-70
2022/12/14 04:36:45;;;;;;;25.52;15.57;;;-2.20;99.90;;;;;;5063625;28;20123;-70
2022/12/14 04:39:16;;;;;;;29.13;16.38;;;-2.20;99.90;;;;;;5070406;28;20070;-70
2022/12/14 04:41:45;;;;;;;30.67;16.95;;;-2.10;99.90;;;;;;5070079;28;20102;-70
2022/12/14 04:44:36;;;;;;;30.42;16.63;;;-2.10;99.90;;;;;;5071135;28;20401;-70
2022/12/14 04:47:05;;;;;;;33.13;17.08;;;-2.10;99.90;;;;;;5065037;28;20120;-70
2022/12/14 04:50:14;;;;;;;30.33;16.15;;;-2.10;99.90;;;;;;5067199;28;20044;-70
2022/12/14 04:52:49;;;;;;;30.63;17.63;;;-2.10;99.90;;;;;;5051241;28;20051;-72
2022/12/14 04:55:24;;;;;;;29.90;16.25;;;-2.00;99.90;;;;;;5069946;28;20454;-70
2022/12/14 04:57:55;;;;;;;32.40;18.20;;;-2.10;99.90;;;;;;5080363;28;20522;-70
2022/12/14 05:00:21;;;;;;;28.67;16.75;;;-2.10;99.90;;;;;;5062660;28;20048;-71
2022/12/14 05:03:14;;;;;;;30.73;17.15;;;-2.10;99.90;;;;;;5066208;28;20460;-70
2022/12/14 05:05:52;;;;;;;30.73;17.35;;;-2.00;99.90;;;;;;5060242;28;20466;-70
2022/12/14 05:08:55;;;;;;;31.60;18.13;;;-2.10;99.90;;;;;;5069786;28;20017;-72
2022/12/14 05:11:20;;;;;;;30.55;16.55;;;-2.00;99.90;;;;;;5068836;28;20035;-72
2022/12/14 05:13:49;;;;;;;33.35;17.77;;;-2.00;99.90;;;;;;5071028;28;20033;-70
2022/12/14 05:16:17;;;;;;;31.85;18.27;;;-2.00;99.90;;;;;;5070757;28;20174;-71
2022/12/14 05:18:44;;;;;;;37.20;17.83;;;-2.00;99.90;;;;;;5069810;28;20034;-70
2022/12/14 05:23:54;;;;;;;27.92;16.65;;;-1.90;99.90;;;;;;5070350;28;20051;-71
2022/12/14 05:26:20;;;;;;;30.52;17.00;;;-2.00;99.90;;;;;;5044308;28;20041;-71
2022/12/14 05:28:45;;;;;;;32.50;17.30;;;-2.00;99.90;;;;;;5069828;28;20073;-71
2022/12/14 05:31:11;;;;;;;30.15;17.00;;;-1.90;99.90;;;;;;5070240;28;20032;-71
2022/12/14 05:33:37;;;;;;;30.98;18.20;;;-1.90;99.90;;;;;;5068959;28;20085;-71
2022/12/14 05:36:02;;;;;;;34.28;18.27;;;-1.90;99.90;;;;;;5070288;28;20028;-71
2022/12/14 05:38:28;;;;;;;28.80;16.45;;;-1.90;99.90;;;;;;5069143;28;20070;-70
2022/12/14 05:40:53;;;;;;;32.80;17.75;;;-2.00;99.90;;;;;;5069776;28;20055;-70
2022/12/14 05:43:19;;;;;;;31.05;17.77;;;-2.00;99.90;;;;;;5064803;28;20134;-73
2022/12/14 05:45:44;;;;;;;33.13;18.15;;;-2.00;99.90;;;;;;5068101;28;20056;-70
2022/12/14 05:48:10;;;;;;;32.80;19.20;;;-2.00;99.90;;;;;;5069875;28;20021;-71
2022/12/14 05:50:36;;;;;;;34.25;17.63;;;-2.00;99.90;;;;;;5045228;28;20024;-70
2022/12/14 05:53:01;;;;;;;33.55;18.88;;;-2.00;99.90;;;;;;5069526;28;20048;-70
2022/12/14 05:55:27;;;;;;;36.35;19.08;;;-2.00;99.90;;;;;;5069051;28;20103;-70
2022/12/14 05:57:52;;;;;;;32.00;18.85;;;-1.90;99.90;;;;;;5080190;28;20032;-71
2022/12/14 06:00:18;;;;;;;34.20;20.10;;;-2.00;99.90;;;;;;5060926;28;20107;-73
2022/12/14 06:02:44;;;;;;;31.70;18.05;;;-2.00;99.90;;;;;;5061023;28;20036;-71
2022/12/14 06:05:09;;;;;;;31.38;18.25;;;-2.00;99.90;;;;;;5071480;28;20043;-71
2022/12/14 06:07:35;;;;;;;34.22;18.48;;;-2.00;99.90;;;;;;5072572;28;20484;-71
2022/12/14 06:10:00;;;;;;;35.70;18.85;;;-2.00;99.90;;;;;;5072804;28;20024;-71
2022/12/14 06:12:26;;;;;;;35.72;18.83;;;-2.00;99.90;;;;;;5071794;28;20115;-71
2022/12/14 06:14:51;;;;;;;37.60;20.67;;;-2.00;99.90;;;;;;5074159;28;20032;-71
2022/12/14 06:17:17;;;;;;;38.70;20.08;;;-2.00;99.90;;;;;;5065889;28;20060;-74
2022/12/14 06:19:42;;;;;;;38.40;20.60;;;-2.00;99.90;;;;;;5055440;28;20037;-71
2022/12/14 06:22:08;;;;;;;39.67;20.35;;;-2.00;99.90;;;;;;5072500;28;20043;-71
2022/12/14 06:24:34;;;;;;;35.33;19.25;;;-2.00;99.90;;;;;;5072445;28;20039;-70
2022/12/14 06:26:59;;;;;;;36.08;20.77;;;-1.90;99.90;;;;;;5072270;28;20119;-70
2022/12/14 06:29:25;;;;;;;38.15;20.63;;;-1.80;99.90;;;;;;5054544;28;20362;-70
2022/12/14 06:31:50;;;;;;;37.25;21.80;;;-1.80;99.90;;;;;;5065313;28;20050;-71
2022/12/14 06:34:17;;;;;;;42.30;21.58;;;-1.80;99.90;;;;;;5073240;28;20058;-72
2022/12/14 06:36:42;;;;;;;39.60;20.75;;;-1.80;99.90;;;;;;5072414;28;20025;-70
2022/12/14 06:39:12;;;;;;;37.15;21.45;;;-1.90;99.90;;;;;;5072961;28;20029;-72
2022/12/14 06:41:39;;;;;;;44.95;21.58;;;-1.90;99.90;;;;;;5071130;28;20024;-77
2022/12/14 06:44:07;;;;;;;40.33;22.23;;;-1.90;99.90;;;;;;5073194;28;20070;-71
2022/12/14 06:46:33;;;;;;;43.65;22.55;;;-1.90;99.90;;;;;;5070721;28;20035;-69
2022/12/14 06:48:59;;;;;;;45.70;23.60;;;-1.90;99.90;;;;;;5056360;28;20050;-69
2022/12/14 06:51:25;;;;;;;41.53;23.13;;;-1.90;99.90;;;;;;5070544;28;20028;-69
2022/12/14 06:53:56;;;;;;;42.78;23.23;;;-1.90;99.90;;;;;;5072103;28;20032;-68
2022/12/14 06:56:24;;;;;;;46.08;25.38;;;-2.00;99.90;;;;;;5071416;28;20135;-72
2022/12/14 06:58:49;;;;;;;41.05;24.33;;;-2.00;99.90;;;;;;5082609;28;20032;-72
2022/12/14 07:01:17;;;;;;;46.47;24.73;;;-2.10;99.90;;;;;;5071854;28;20389;-71
2022/12/14 07:03:50;;;;;;;52.38;26.27;;;-2.10;99.90;;;;;;5067667;28;20062;-69
2022/12/14 07:06:16;;;;;;;50.88;26.00;;;-2.10;99.90;;;;;;5065020;28;20024;-71
2022/12/14 07:08:42;;;;;;;48.97;26.70;;;-2.20;99.90;;;;;;5071253;28;20056;-68
2022/12/14 07:11:11;;;;;;;44.83;24.65;;;-2.20;99.90;;;;;;5071090;28;20067;-69
2022/12/14 07:13:37;;;;;;;45.30;24.48;;;-2.20;99.90;;;;;;5071343;28;20489;-70
2022/12/14 07:16:04;;;;;;;51.65;25.77;;;-2.20;99.90;;;;;;5070804;28;20021;-71
2022/12/14 07:18:30;;;;;;;53.50;26.17;;;-2.20;99.90;;;;;;5070686;28;20437;-70
2022/12/14 07:21:04;;;;;;;44.25;24.27;;;-2.20;99.90;;;;;;5071451;28;20077;-70
2022/12/14 07:23:32;;;;;;;49.47;26.08;;;-2.20;99.90;;;;;;5064127;28;20028;-70
2022/12/14 07:26:14;;;;;;;47.08;25.77;;;-2.20;99.90;;;;;;5071894;28;20021;-70
2022/12/14 07:28:41;;;;;;;47.45;26.77;;;-2.20;99.90;;;;;;5054682;28;20044;-70
2022/12/14 07:31:11;;;;;;;49.25;26.63;;;-2.10;99.90;;;;;;5053288;28;20456;-71
2022/12/14 07:33:37;;;;;;;;;;;-2.10;99.90;;;;;;5070996;28;20033;-70
2022/12/14 07:36:07;;;;;;;48.50;25.25;;;-2.10;99.90;;;;;;5072160;28;20277;-70
2022/12/14 07:38:35;;;;;;;47.53;25.48;;;-2.10;99.90;;;;;;5070527;28;20036;-69
2022/12/14 07:41:10;;;;;;;51.28;26.70;;;-2.10;99.90;;;;;;5069934;28;20036;-71
2022/12/14 07:43:40;;;;;;;47.92;26.98;;;-2.10;99.90;;;;;;5071015;28;20029;-69
2022/12/14 07:46:14;;;;;;;53.40;28.10;;;-2.00;99.90;;;;;;5064933;28;20423;-73
2022/12/14 07:48:43;;;;;;;49.03;26.00;;;-2.00;99.90;;;;;;5063650;28;20280;-72
2022/12/14 07:51:11;;;;;;;46.95;25.13;;;-2.00;99.90;;;;;;5066497;28;20344;-69
2022/12/14 07:53:38;;;;;;;56.63;27.58;;;-2.00;99.90;;;;;;5070552;28;20025;-71
2022/12/14 07:56:10;;;;;;;46.55;25.85;;;-2.00;99.90;;;;;;5069453;28;20060;-70
2022/12/14 07:58:36;;;;;;;49.05;26.35;;;-1.90;99.90;;;;;;5072514;28;20027;-70
2022/12/14 08:01:10;;;;;;;48.40;26.73;;;-1.90;99.90;;;;;;5068572;28;20119;-70
2022/12/14 08:03:36;;;;;;;48.47;26.63;;;-1.90;99.90;;;;;;5064190;28;20028;-69
2022/12/14 08:06:10;;;;;;;49.97;26.85;;;-1.80;99.90;;;;;;5052514;28;20700;-69
2022/12/14 08:08:35;;;;;;;47.70;25.75;;;-1.80;99.90;;;;;;5068058;28;20024;-72
2022/12/14 08:11:02;;;;;;;44.67;25.33;;;-1.80;99.90;;;;;;5070201;28;20082;-71
2022/12/14 08:13:28;;;;;;;50.30;27.15;;;-1.70;99.90;;;;;;5067751;28;20029;-69
2022/12/14 08:15:53;;;;;;;51.88;26.17;;;-1.70;99.90;;;;;;5067887;28;20538;-70
2022/12/14 08:18:19;;;;;;;49.97;26.13;;;-1.60;99.90;;;;;;5068000;28;20028;-69
2022/12/14 08:20:51;;;;;;;51.47;26.50;;;-1.60;99.90;;;;;;5070129;28;20029;-71
2022/12/14 08:23:21;;;;;;;50.08;26.92;;;-1.50;99.90;;;;;;5069859;28;20025;-71
2022/12/14 08:25:55;;;;;;;49.63;25.75;;;-1.40;99.90;;;;;;5061999;28;20078;-70
2022/12/14 08:28:21;;;;;;;50.15;25.98;;;-1.30;99.90;;;;;;5068411;28;20078;-71
2022/12/14 08:30:46;;;;;;;47.03;25.67;;;-1.20;99.90;;;;;;5048914;28;20120;-69
2022/12/14 08:33:12;;;;;;;45.40;25.00;;;-1.10;99.90;;;;;;5070313;28;20108;-69
2022/12/14 08:35:37;;;;;;;46.53;24.65;;;-1.10;99.90;;;;;;5070129;28;20017;-70
2022/12/14 08:38:03;;;;;;;51.72;26.33;;;-1.00;99.90;;;;;;5070161;28;20568;-70
2022/12/14 08:40:29;;;;;;;47.42;25.90;;;-1.00;99.90;;;;;;5069064;28;20032;-69
2022/12/14 08:42:56;;;;;;;47.20;25.58;;;;;;;;;;5052020;28;20040;-69
2022/12/14 08:45:24;;;;;;;45.10;24.58;;;;;;;;;;5070119;28;20070;-70
2022/12/14 08:47:51;;;;;;;42.40;24.63;;;;;;;;;;5070295;28;20159;-70
2022/12/14 08:50:17;;;;;;;43.90;24.90;;;;;;;;;;5070000;28;20036;-73
2022/12/14 08:52:48;;;;;;;50.15;26.20;;;;;;;;;;5069957;28;20082;-69
2022/12/14 08:55:15;;;;;;;43.38;24.80;;;;;;;;;;5070694;28;20024;-70
2022/12/14 08:57:42;;;;;;;51.50;26.20;;;;;;;;;;5078263;28;20035;-70
2022/12/14 09:00:09;;;;;;;43.97;25.45;;;;;;;;;;5072467;28;20024;-71
2022/12/14 09:02:36;;;;;;;52.17;26.15;;;;;;;;;;5068856;28;20020;-71
2022/12/14 09:05:04;;;;;;;48.05;26.80;;;;;;;;;;5070720;28;20036;-71
2022/12/14 09:07:31;;;;;;;48.45;27.30;;;;;;;;;;5069691;28;20092;-70
2022/12/14 09:09:58;;;;;;;50.78;27.90;;;;;;;;;;5068030;28;20099;-70
2022/12/14 09:12:25;;;;;;;56.35;29.33;;;;;;;;;;5069657;28;20031;-70
2022/12/14 09:14:52;;;;;;;51.35;28.50;;;;;;;;;;5070473;28;20025;-70
2022/12/14 09:17:20;;;;;;;48.92;26.50;;;;;;;;;;5069677;28;20017;-73
2022/12/14 09:19:47;;;;;;;56.58;28.63;;;;;;;;;;5069302;28;20103;-70
2022/12/14 09:22:14;;;;;;;57.83;29.00;;;;;;;;;;5070165;28;20021;-70
2022/12/14 09:24:43;;;;;;;59.17;29.60;;;;;;;;;;5069795;28;20020;-70
2022/12/14 09:27:10;;;;;;;51.10;27.85;;;;;;;;;;5069708;28;20451;-70
2022/12/14 09:29:37;;;;;;;48.63;27.83;;;;;;;;;;5068522;28;20169;-70
2022/12/14 09:32:04;;;;;;;55.45;29.77;;;;;;;;;;5069854;28;20028;-69
2022/12/14 09:34:31;;;;;;;62.38;30.10;;;;;;;;;;5069858;28;20031;-70
2022/12/14 09:37:03;;;;;;;52.65;29.15;;;;;;;;;;5069448;28;20075;-69
2022/12/14 09:39:30;;;;;;;51.90;27.63;;;;;;;;;;5071650;28;20008;-70
2022/12/14 09:42:16;;;;;;;61.47;28.70;;;;;;;;;;5072978;28;20558;-70
2022/12/14 09:45:16;;;;;;;65.80;30.40;;;;;;;;;;5073344;28;20031;-70
2022/12/14 09:47:48;;;;;;;54.47;28.38;;;;;;;;;;5070892;28;20017;-70
2022/12/14 09:50:17;;;;;;;56.85;29.83;;;;;;;;;;5070110;28;20036;-71
2022/12/14 09:52:49;;;;;;;53.93;29.53;;;;;;;;;;5072458;28;20028;-69
2022/12/14 09:55:37;;;;;;;57.72;28.75;;;;;;;;;;5074106;28;20304;-69
2022/12/14 09:58:04;;;;;;;51.92;29.58;;;;;;;;;;5075349;28;20499;-69
2022/12/14 10:00:43;;;;;;;54.58;30.58;;;;;;;;;;5071825;28;20067;-70
2022/12/14 10:03:13;;;;;;;55.13;30.90;;;;;;;;;;5065169;28;20055;-69
2022/12/14 10:05:41;;;;;;;;;;;;;;;;;;5073470;28;20016;-69
2022/12/14 10:08:14;;;;;;;54.75;29.38;;;;;;;;;;5073460;28;19911;-69
2022/12/14 10:10:49;;;;;;;55.55;29.55;;;;;;;;;;5052357;28;20078;-70
2022/12/14 10:13:26;;;;;;;58.28;32.45;;;;;;;;;;5072857;28;20078;-70
2022/12/14 10:16:01;;;;;;;56.30;31.38;;;;;;;;;;5073519;28;20027;-71
2022/12/14 10:18:28;;;;;;;59.17;32.53;;;;;;;;;;5071233;28;20029;-69
2022/12/14 10:21:02;;;;;;;64.68;34.35;;;;;;;;;;5072904;28;20032;-69
2022/12/14 10:23:29;;;;;;;61.10;32.00;;;;;;;;;;5071626;28;20055;-69
2022/12/14 10:25:58;;;;;;;62.03;32.83;;;;;;;;;;5072152;28;20024;-69
2022/12/14 10:28:43;;;;;;;64.88;34.78;;;;;;;;;;5068849;28;20116;-69
2022/12/14 10:31:14;;;;;;;64.20;32.75;;;;;;;;;;5072071;28;20040;-68
2022/12/14 10:33:44;;;;;;;59.47;32.72;;;;;;;;;;5070940;28;20096;-69
2022/12/14 10:36:26;;;;;;;65.05;34.28;;;;;;;;;;5072005;28;20020;-69
2022/12/14 10:39:00;;;;;;;63.58;33.92;;;;;;;;;;5071868;28;20028;-70
2022/12/14 10:41:39;;;;;;;62.92;33.95;;;;;;;;;;5070738;28;20029;-69
2022/12/14 10:44:06;;;;;;;67.07;34.83;;;;;;;;;;5066738;28;20035;-69
2022/12/14 10:46:42;;;;;;;63.83;34.80;;;;;;;;;;5070935;28;20021;-70
2022/12/14 10:49:22;;;;;;;71.75;35.60;;;;;;;;;;5069775;28;20020;-69
2022/12/14 10:51:55;;;;;;;60.10;34.80;;;;;;;;;;5063051;28;20355;-70
2022/12/14 10:54:21;;;;;;;66.07;35.13;;;;;;;;;;5071983;28;20040;-70
2022/12/14 10:56:48;;;;;;;64.00;35.10;;;;;;;;;;5072257;28;20078;-70
2022/12/14 10:59:17;;;;;;;65.38;35.47;;;;;;;;;;5074255;28;20450;-70
2022/12/14 11:01:52;;;;;;;63.03;35.60;;;;;;;;;;5053667;28;20029;-70
2022/12/14 11:04:21;;;;;;;60.13;34.10;;;;;;;;;;5071844;28;20039;-72
2022/12/14 11:06:47;;;;;;;55.13;31.67;;;;;;;;;;5071080;28;20391;-70
2022/12/14 11:09:20;;;;;;;65.88;34.22;;;;;;;;;;5072498;28;20020;-69
2022/12/14 11:11:46;;;;;;;64.95;35.72;;;;;;;;;;5072119;28;20035;-69
2022/12/14 11:14:14;;;;;;;56.30;33.85;;;;;;;;;;5072888;28;20024;-69
2022/12/14 11:16:40;;;;;;;62.40;33.22;;;;;;;;;;5070373;28;20024;-69
2022/12/14 11:19:20;;;;;;;65.22;34.72;;;-0.50;99.90;;;;;;5072147;28;20030;-69
2022/12/14 11:21:47;;;;;;;58.17;32.67;;;-0.30;99.90;;;;;;5067700;28;20036;-69
2022/12/14 11:24:27;;;;;;;63.85;34.45;;;-0.30;99.90;;;;;;5071338;28;20414;-69
2022/12/14 11:26:57;;;;;;;59.83;32.53;;;-0.40;99.90;;;;;;5070590;28;20058;-69
2022/12/14 11:29:36;;;;;;;60.72;33.95;;;-0.40;99.90;;;;;;5070745;28;20017;-69
2022/12/14 11:32:03;;;;;;;67.20;36.20;;;-0.40;99.90;;;;;;5071003;28;20036;-70
2022/12/14 11:34:41;;;;;;;61.30;34.20;;;-0.40;99.90;;;;;;5070794;28;20378;-69
2022/12/14 11:37:27;;;;;;;62.90;33.50;;;-0.50;99.90;;;;;;5066721;28;20096;-71
2022/12/14 11:39:56;;;;;;;59.42;33.47;;;-0.50;99.90;;;;;;5066626;28;20055;-71
2022/12/14 11:42:22;;;;;;;63.97;34.90;;;-0.40;99.90;;;;;;5070121;28;20035;-71
2022/12/14 11:44:49;;;;;;;56.20;31.88;;;-0.30;99.90;;;;;;5053264;28;20484;-70
2022/12/14 11:47:25;;;;;;;60.35;34.95;;;-0.30;99.90;;;;;;5068058;28;20024;-70
2022/12/14 11:49:53;;;;;;;65.10;35.33;;;-0.20;99.90;;;;;;5070450;28;20032;-71
2022/12/14 11:52:38;;;;;;;64.00;35.53;;;-0.20;99.90;;;;;;5069872;28;20036;-74
2022/12/14 11:55:16;;;;;;;61.53;34.45;;;-0.10;99.90;;;;;;5067612;28;20071;-70
2022/12/14 11:57:51;;;;;;;63.08;35.30;;;0.00;99.90;;;;;;5073076;28;20101;-71
2022/12/14 12:00:22;;;;;;;61.13;34.40;;;0.10;99.90;;;;;;5071248;28;20031;-74
2022/12/14 12:02:54;;;;;;;70.22;37.20;;;0.20;99.90;;;;;;5068722;28;20450;-71
2022/12/14 12:05:21;;;;;;;65.32;36.25;;;0.20;99.90;;;;;;5070620;28;20461;-74
2022/12/14 12:07:53;;;;;;;65.03;34.22;;;0.20;99.90;;;;;;5069261;28;20020;-70
2022/12/14 12:10:24;;;;;;;65.05;36.25;;;0.30;99.90;;;;;;5070261;28;20029;-74
2022/12/14 12:13:00;;;;;;;66.07;34.15;;;0.40;99.90;;;;;;5074647;28;20086;-71
2022/12/14 12:15:38;;;;;;;64.35;35.65;;;0.50;99.90;;;;;;5069428;28;20028;-71
2022/12/14 12:18:15;;;;;;;69.13;35.53;;;0.60;99.90;;;;;;5045915;28;20029;-70
2022/12/14 12:21:09;;;;;;;65.70;35.92;;;0.60;99.90;;;;;;5070157;28;20030;-70
2022/12/14 12:23:59;;;;;;;66.20;35.90;;;0.60;99.90;;;;;;5064409;28;20095;-71
2022/12/14 12:26:30;;;;;;;64.07;33.92;;;0.50;99.90;;;;;;5068116;28;20024;-72
2022/12/14 12:29:20;;;;;;;72.30;37.60;;;0.50;99.90;;;;;;5068755;28;20072;-70
2022/12/14 12:32:07;;;;;;;63.90;33.33;;;0.40;99.90;;;;;;5069568;28;20067;-71
2022/12/14 12:34:50;;;;;;;64.75;36.20;;;0.40;99.90;;;;;;5069701;28;20136;-72
2022/12/14 12:37:22;;;;;;;70.22;37.15;;;0.30;99.90;;;;;;5068629;28;20550;-70
2022/12/14 12:39:54;;;;;;;65.85;35.75;;;0.40;99.90;;;;;;5069325;28;20462;-70
2022/12/14 12:42:42;;;;;;;68.43;36.88;;;0.40;99.90;;;;;;5067634;28;20028;-73
2022/12/14 12:45:15;;;;;;;69.80;39.25;;;0.30;99.90;;;;;;5065516;28;20462;-72
2022/12/14 12:47:46;;;;;;;63.83;35.97;;;0.30;99.90;;;;;;5068486;28;20822;-72
2022/12/14 12:50:32;;;;;;;67.50;36.28;;;0.20;99.90;;;;;;5070740;28;20113;-70
2022/12/14 12:53:15;;;;;;;74.07;36.95;;;0.20;99.90;;;;;;5070001;28;20037;-71
2022/12/14 12:55:47;;;;;;;63.83;35.53;;;0.10;99.90;;;;;;5068575;28;20063;-70
2022/12/14 12:58:24;;;;;;;66.38;36.40;;;0.10;99.90;;;;;;5069458;28;20036;-72
2022/12/14 13:00:54;;;;;;;65.78;36.42;;;0.20;99.90;;;;;;5069719;28;20481;-72
2022/12/14 13:03:28;;;;;;;69.57;36.97;;;0.10;99.90;;;;;;5069375;28;20021;-75
2022/12/14 13:06:34;;;;;;;66.38;35.67;;;0.10;99.90;;;;;;5069224;28;20101;-73
2022/12/14 13:09:18;;;;;;;70.60;36.47;;;0.00;99.90;;;;;;5043629;28;20124;-72
2022/12/14 13:11:44;;;;;;;64.72;37.58;;;0.00;99.90;;;;;;5069763;28;20033;-70
2022/12/14 13:14:34;;;;;;;70.07;38.03;;;0.10;99.90;;;;;;5070584;28;20041;-69
2022/12/14 13:17:04;;;;;;;68.07;37.05;;;0.00;99.90;;;;;;5074029;28;20047;-69
2022/12/14 13:19:39;;;;;;;69.80;37.08;;;0.00;99.90;;;;;;5070176;28;20037;-70
2022/12/14 13:22:05;;;;;;;72.30;38.47;;;0.00;99.90;;;;;;5054701;28;20338;-70
2022/12/14 13:24:30;;;;;;;70.57;38.88;;;-0.10;99.90;;;;;;5074262;28;20035;-69
2022/12/14 13:27:29;;;;;;;67.18;37.55;;;-0.10;99.90;;;;;;5072440;28;20053;-72